Aviation Digital Data Service (ADDS)

Output produced by TAFs form (1254 UTC 24 July 2016)
found at http://aviationweather.gov/adds/tafs/
 
KHOB 241120Z 2412/2512 14009KT P6SM SKC 
     FM241400 15012G20KT P6SM SKC